Test XHTML 1.0 Strict Page for WU-History Testing
Station Historical Data
 
Daily Summary for January 18, 2018 Units:  Both    English   Metric
« Previous Day
Next Day »
Daily Weekly Monthly Yearly Custom
  Current: High: Low: Average:
Temperature: 41.4 °F /  5.2 °C 46.2 °F /  7.9 °C 40.3 °F /  4.6 °C 44.4 °F /  6.9 °C
Dew Point: 41.4 °F /  5.2 °C 45.8 °F /  7.7 °C 40.3 °F /  4.6 °C 43.5 °F /  6.4 °C
Humidity: 100 % 100 % 90 % 97 %
Wind Speed: 10.4 mph /  16.7 km/h 28.8 mph /  46.3 km/h - 13.2 mph /  21.2 km/h
Wind Gust: 10.4 mph /  16.7 km/h 28.8 mph /  46.3 km/h - -
Wind:SE - - SSW
Pressure: 29.18 in /  988 hPa 29.21 in /  989.1 hPa 29.09 in /  985 hPa -
Precipitation: 0.05 in /  1.27 mm      
Historical Graphs
 
 
Weather-Above Climate History
Untitled
Tabular Data for January 18, 2018
Time Temperature Dew Point Pressure Wind Wind Speed Wind Gust Humidity Rainfall Rate (Hourly) solar Conditions
00:00 40.3 °F /  4.6 °C 40.3 °F /  4.6 °C 29.21 in /  989.1 hPa NW 8.1 mph /  13 km/h 8.1 mph /  13 km/h 100 % 0.02 in /  0.51 mm 0.0 W/m2 RA
00:06 40.5 °F /  4.7 °C 40.5 °F /  4.7 °C 29.21 in /  989.1 hPa South 3.5 mph /  5.6 km/h 3.5 mph /  5.6 km/h 100 % 0.02 in /  0.51 mm 0.0 W/m2 RA
00:11 40.8 °F /  4.9 °C 40.8 °F /  4.9 °C 29.20 in /  988.7 hPa ESE 8.1 mph /  13 km/h 8.1 mph /  13 km/h 100 % 0.04 in /  1.02 mm 0.0 W/m2 RA
00:16 40.8 °F /  4.9 °C 40.8 °F /  4.9 °C 29.19 in /  988.4 hPa South 9.2 mph /  14.8 km/h 9.2 mph /  14.8 km/h 100 % 0.05 in /  1.27 mm 0.0 W/m2 RA
00:21 41.0 °F /  5 °C 41.0 °F /  5 °C 29.19 in /  988.4 hPa East 5.9 mph /  9.5 km/h 5.9 mph /  9.5 km/h 100 % 0.05 in /  1.27 mm 0.0 W/m2 RA
00:26 41.4 °F /  5.2 °C 41.4 °F /  5.2 °C 29.18 in /  988 hPa SE 17.3 mph /  27.8 km/h 17.3 mph /  27.8 km/h 100 % 0.06 in /  1.52 mm 0.0 W/m2 RA
00:31 41.9 °F /  5.5 °C 41.9 °F /  5.5 °C 29.18 in /  988 hPa SSW 17.7 mph /  28.5 km/h 17.7 mph /  28.5 km/h 100 % 0.06 in /  1.52 mm 0.0 W/m2 RA
00:36 42.3 °F /  5.7 °C 42.3 °F /  5.7 °C 29.16 in /  987.4 hPa South 12.7 mph /  20.4 km/h 12.7 mph /  20.4 km/h 100 % 0.06 in /  1.52 mm 0.0 W/m2
00:41 42.8 °F /  6 °C 42.8 °F /  6 °C 29.16 in /  987.4 hPa South 11.3 mph /  18.2 km/h 11.3 mph /  18.2 km/h 100 % 0.05 in /  1.27 mm 0.0 W/m2 OVC
00:46 43.2 °F /  6.2 °C 43.2 °F /  6.2 °C 29.16 in /  987.4 hPa South 6.2 mph /  10 km/h 6.2 mph /  10 km/h 100 % 0.05 in /  1.27 mm 0.0 W/m2 OVC
00:51 43.7 °F /  6.5 °C 43.7 °F /  6.5 °C 29.16 in /  987.4 hPa SSE 5.8 mph /  9.3 km/h 5.8 mph /  9.3 km/h 100 % 0.05 in /  1.27 mm 0.0 W/m2 OVC
00:56 43.9 °F /  6.6 °C 43.9 °F /  6.6 °C 29.15 in /  987 hPa WSW 7.5 mph /  12.1 km/h 7.5 mph /  12.1 km/h 100 % 0.05 in /  1.27 mm 0.0 W/m2 OVC
01:01 44.1 °F /  6.7 °C 44.1 °F /  6.7 °C 29.15 in /  987 hPa WSW 5.8 mph /  9.3 km/h 5.8 mph /  9.3 km/h 100 % 0.05 in /  1.27 mm 0.0 W/m2 OVC
01:06 44.2 °F /  6.8 °C 44.2 °F /  6.8 °C 29.14 in /  986.7 hPa SE 6.2 mph /  10 km/h 6.2 mph /  10 km/h 100 % 0.04 in /  1.02 mm 0.0 W/m2 OVC
01:11 44.6 °F /  7 °C 44.6 °F /  7 °C 29.14 in /  986.7 hPa WSW 3.5 mph /  5.6 km/h 3.5 mph /  5.6 km/h 100 % 0.02 in /  0.51 mm 0.0 W/m2 OVC
01:16 45.0 °F /  7.2 °C 45.0 °F /  7.2 °C 29.13 in /  986.3 hPa NW 6.9 mph /  11.1 km/h 6.9 mph /  11.1 km/h 100 % 0.01 in /  0.25 mm 0.0 W/m2 OVC
01:21 45.3 °F /  7.4 °C 45.3 °F /  7.4 °C 29.13 in /  986.3 hPa SSW 19.6 mph /  31.5 km/h 19.6 mph /  31.5 km/h 100 % 0.01 in /  0.25 mm 0.0 W/m2 OVC
01:26 45.9 °F /  7.7 °C 45.6 °F /  7.6 °C 29.13 in /  986.3 hPa West 8.4 mph /  13.5 km/h 8.4 mph /  13.5 km/h 99 % 0.00 in /  0 mm 0.0 W/m2
01:31 45.7 °F /  7.6 °C 45.7 °F /  7.6 °C 29.13 in /  986.3 hPa SW 11.2 mph /  18 km/h 11.2 mph /  18 km/h 100 % 0.00 in /  0 mm 0.0 W/m2
01:36 45.9 °F /  7.7 °C 45.6 °F /  7.6 °C 29.13 in /  986.3 hPa SW 15.2 mph /  24.5 km/h 15.2 mph /  24.5 km/h 99 % 0.00 in /  0 mm 0.0 W/m2
01:41 45.7 °F /  7.6 °C 45.7 °F /  7.6 °C 29.13 in /  986.3 hPa SE 4.6 mph /  7.4 km/h 4.6 mph /  7.4 km/h 100 % 0.00 in /  0 mm 0.0 W/m2
01:46 46.0 °F /  7.8 °C 45.8 °F /  7.7 °C 29.13 in /  986.3 hPa NNE 10.4 mph /  16.7 km/h 10.4 mph /  16.7 km/h 99 % 0.00 in /  0 mm 0.0 W/m2
01:51 46.2 °F /  7.9 °C 45.7 °F /  7.6 °C 29.13 in /  986.3 hPa South 10.4 mph /  16.7 km/h 10.4 mph /  16.7 km/h 98 % 0.00 in /  0 mm 0.0 W/m2
01:56 46.2 °F /  7.9 °C 45.7 °F /  7.6 °C 29.12 in /  986 hPa SE 12.7 mph /  20.4 km/h 12.7 mph /  20.4 km/h 98 % 0.00 in /  0 mm 0.0 W/m2
02:01 46.2 °F /  7.9 °C 45.7 °F /  7.6 °C 29.12 in /  986 hPa WSW 13.8 mph /  22.2 km/h 13.8 mph /  22.2 km/h 98 % 0.00 in /  0 mm 0.0 W/m2
02:06 45.7 °F /  7.6 °C 45.7 °F /  7.6 °C 29.12 in /  986 hPa Calm     100 % 0.01 in /  0.25 mm 0.0 W/m2 RA
02:11 45.5 °F /  7.5 °C 45.5 °F /  7.5 °C 29.12 in /  986 hPa NW 11.0 mph /  17.7 km/h 11.0 mph /  17.7 km/h 100 % 0.01 in /  0.25 mm 0.0 W/m2 RA
02:16 45.5 °F /  7.5 °C 45.5 °F /  7.5 °C 29.11 in /  985.7 hPa East 8.1 mph /  13 km/h 8.1 mph /  13 km/h 100 % 0.01 in /  0.25 mm 0.0 W/m2
02:21 45.5 °F /  7.5 °C 44.7 °F /  7.1 °C 29.11 in /  985.7 hPa SW 10.6 mph /  17.1 km/h 10.6 mph /  17.1 km/h 97 % 0.01 in /  0.25 mm 0.0 W/m2 OVC
02:26 45.9 °F /  7.7 °C 44.2 °F /  6.8 °C 29.11 in /  985.7 hPa SSW 13.8 mph /  22.2 km/h 13.8 mph /  22.2 km/h 94 % 0.01 in /  0.25 mm 0.0 W/m2 OVC
02:31 45.7 °F /  7.6 °C 43.8 °F /  6.6 °C 29.11 in /  985.7 hPa SE 10.4 mph /  16.7 km/h 10.4 mph /  16.7 km/h 93 % 0.01 in /  0.25 mm 0.0 W/m2 OVC
02:37 45.9 °F /  7.7 °C 44.0 °F /  6.7 °C 29.11 in /  985.7 hPa WSW 20.7 mph /  33.3 km/h 20.7 mph /  33.3 km/h 93 % 0.01 in /  0.25 mm 0.0 W/m2 OVC
02:42 45.9 °F /  7.7 °C 43.4 °F /  6.3 °C 29.11 in /  985.7 hPa SW 13.8 mph /  22.2 km/h 13.8 mph /  22.2 km/h 91 % 0.01 in /  0.25 mm 0.0 W/m2 OVC
02:47 46.0 °F /  7.8 °C 43.3 °F /  6.3 °C 29.11 in /  985.7 hPa SW 16.1 mph /  25.9 km/h 16.1 mph /  25.9 km/h 90 % 0.01 in /  0.25 mm 0.0 W/m2 OVC
02:52 46.0 °F /  7.8 °C 43.6 °F /  6.4 °C 29.10 in /  985.3 hPa South 11.5 mph /  18.5 km/h 11.5 mph /  18.5 km/h 91 % 0.01 in /  0.25 mm 0.0 W/m2 OVC
02:57 46.2 °F /  7.9 °C 43.4 °F /  6.3 °C 29.10 in /  985.3 hPa WSW 13.9 mph /  22.4 km/h 13.9 mph /  22.4 km/h 90 % 0.01 in /  0.25 mm 0.0 W/m2 OVC
03:02 45.9 °F /  7.7 °C 43.7 °F /  6.5 °C 29.10 in /  985.3 hPa WSW 15.0 mph /  24.1 km/h 15.0 mph /  24.1 km/h 92 % 0.00 in /  0 mm 0.0 W/m2 OVC
03:07 46.0 °F /  7.8 °C 43.6 °F /  6.4 °C 29.10 in /  985.3 hPa WNW 21.4 mph /  34.4 km/h 21.4 mph /  34.4 km/h 91 % 0.00 in /  0 mm 0.0 W/m2
03:12 45.5 °F /  7.5 °C 43.9 °F /  6.6 °C 29.10 in /  985.3 hPa SSW 13.0 mph /  20.9 km/h 13.0 mph /  20.9 km/h 94 % 0.00 in /  0 mm 0.0 W/m2
03:17 46.0 °F /  7.8 °C 43.3 °F /  6.3 °C 29.09 in /  985 hPa WNW 28.8 mph /  46.3 km/h 28.8 mph /  46.3 km/h 90 % 0.00 in /  0 mm 0.0 W/m2
03:22 46.0 °F /  7.8 °C 43.6 °F /  6.4 °C 29.10 in /  985.3 hPa ESE 21.1 mph /  34 km/h 21.1 mph /  34 km/h 91 % 0.00 in /  0 mm 0.0 W/m2 OVC
03:27 46.2 °F /  7.9 °C 43.7 °F /  6.5 °C 29.10 in /  985.3 hPa SSW 18.4 mph /  29.6 km/h 18.4 mph /  29.6 km/h 91 % 0.00 in /  0 mm 0.0 W/m2 OVC
03:32 45.9 °F /  7.7 °C 43.1 °F /  6.2 °C 29.11 in /  985.7 hPa West 19.6 mph /  31.5 km/h 19.6 mph /  31.5 km/h 90 % 0.00 in /  0 mm 0.0 W/m2 OVC
03:37 45.0 °F /  7.2 °C 42.2 °F /  5.7 °C 29.12 in /  986 hPa East 26.5 mph /  42.6 km/h 26.5 mph /  42.6 km/h 90 % 0.00 in /  0 mm 0.0 W/m2 OVC
03:42 43.9 °F /  6.6 °C 41.7 °F /  5.4 °C 29.13 in /  986.3 hPa SW 19.6 mph /  31.5 km/h 19.6 mph /  31.5 km/h 92 % 0.00 in /  0 mm 0.0 W/m2
03:47 43.3 °F /  6.3 °C 41.2 °F /  5.1 °C 29.13 in /  986.3 hPa SSE 24.2 mph /  38.9 km/h 24.2 mph /  38.9 km/h 92 % 0.00 in /  0 mm 0.0 W/m2
03:52 42.8 °F /  6 °C 41.5 °F /  5.3 °C 29.14 in /  986.7 hPa WSW 27.6 mph /  44.4 km/h 27.6 mph /  44.4 km/h 95 % 0.00 in /  0 mm 0.0 W/m2
03:57 42.3 °F /  5.7 °C 41.5 °F /  5.3 °C 29.15 in /  987 hPa SW 24.7 mph /  39.7 km/h 24.7 mph /  39.7 km/h 97 % 0.00 in /  0 mm 0.0 W/m2
04:02 41.7 °F /  5.4 °C 41.5 °F /  5.3 °C 29.16 in /  987.4 hPa West 19.6 mph /  31.5 km/h 19.6 mph /  31.5 km/h 99 % 0.00 in /  0 mm 0.0 W/m2
04:07 41.4 °F /  5.2 °C 41.4 °F /  5.2 °C 29.18 in /  988 hPa SE 10.4 mph /  16.7 km/h 10.4 mph /  16.7 km/h 100 % 0.00 in /  0 mm 0.0 W/m2
Wether-Above
Compliments of Weather Underground - 1 mb
Welcome to Weather-Above
Cheddleton weather station supplies various organisations with data from our weather station one of them is the weather Underground this information displayed here is coming from the weather Underground server 

If any information is used please acknowledge the source to www weather-above.com or weather Underground